sensor_id;sensor_type;location;lat;lon;timestamp;P1;durP1;ratioP1;P2;durP2;ratioP2
20462;SDS011;10390;53.566;9.980;2024-01-07T00:01:02;4.75;;;4.22;;
20462;SDS011;10390;53.566;9.980;2024-01-07T00:03:28;5.10;;;4.55;;
20462;SDS011;10390;53.566;9.980;2024-01-07T00:05:54;5.30;;;4.40;;
20462;SDS011;10390;53.566;9.980;2024-01-07T00:08:19;5.03;;;4.45;;
20462;SDS011;10390;53.566;9.980;2024-01-07T00:10:46;5.30;;;4.40;;
20462;SDS011;10390;53.566;9.980;2024-01-07T00:13:11;4.72;;;4.20;;
20462;SDS011;10390;53.566;9.980;2024-01-07T00:15:37;6.40;;;4.43;;
20462;SDS011;10390;53.566;9.980;2024-01-07T00:18:03;4.82;;;4.40;;
20462;SDS011;10390;53.566;9.980;2024-01-07T00:20:28;7.85;;;4.60;;
20462;SDS011;10390;53.566;9.980;2024-01-07T00:22:54;5.18;;;4.68;;
20462;SDS011;10390;53.566;9.980;2024-01-07T00:25:21;4.78;;;4.38;;
20462;SDS011;10390;53.566;9.980;2024-01-07T00:27:46;5.15;;;4.32;;
20462;SDS011;10390;53.566;9.980;2024-01-07T00:30:12;5.10;;;4.70;;
20462;SDS011;10390;53.566;9.980;2024-01-07T00:32:38;4.88;;;4.38;;
20462;SDS011;10390;53.566;9.980;2024-01-07T00:35:04;4.70;;;4.30;;
20462;SDS011;10390;53.566;9.980;2024-01-07T00:37:30;5.13;;;4.63;;
20462;SDS011;10390;53.566;9.980;2024-01-07T00:39:56;6.07;;;4.65;;
20462;SDS011;10390;53.566;9.980;2024-01-07T00:42:21;4.80;;;4.30;;
20462;SDS011;10390;53.566;9.980;2024-01-07T00:44:47;5.13;;;4.53;;
20462;SDS011;10390;53.566;9.980;2024-01-07T00:47:13;4.85;;;4.40;;
20462;SDS011;10390;53.566;9.980;2024-01-07T00:49:38;5.03;;;4.18;;
20462;SDS011;10390;53.566;9.980;2024-01-07T00:52:06;5.78;;;4.20;;
20462;SDS011;10390;53.566;9.980;2024-01-07T00:54:32;4.80;;;4.40;;
20462;SDS011;10390;53.566;9.980;2024-01-07T00:56:57;5.93;;;4.40;;
20462;SDS011;10390;53.566;9.980;2024-01-07T00:59:23;5.78;;;4.32;;
20462;SDS011;10390;53.566;9.980;2024-01-07T01:01:48;5.18;;;4.68;;
20462;SDS011;10390;53.566;9.980;2024-01-07T01:04:14;4.97;;;4.47;;
20462;SDS011;10390;53.566;9.980;2024-01-07T01:06:40;5.07;;;4.57;;
20462;SDS011;10390;53.566;9.980;2024-01-07T01:09:05;5.40;;;4.80;;
20462;SDS011;10390;53.566;9.980;2024-01-07T01:11:31;4.80;;;4.30;;
20462;SDS011;10390;53.566;9.980;2024-01-07T01:13:56;5.53;;;5.00;;
20462;SDS011;10390;53.566;9.980;2024-01-07T01:16:22;5.00;;;4.50;;
20462;SDS011;10390;53.566;9.980;2024-01-07T01:18:49;5.47;;;4.97;;
20462;SDS011;10390;53.566;9.980;2024-01-07T01:21:15;4.85;;;4.40;;
20462;SDS011;10390;53.566;9.980;2024-01-07T01:23:40;5.03;;;4.53;;
20462;SDS011;10390;53.566;9.980;2024-01-07T01:26:09;5.32;;;4.82;;
20462;SDS011;10390;53.566;9.980;2024-01-07T01:28:34;5.10;;;4.63;;
20462;SDS011;10390;53.566;9.980;2024-01-07T01:31:00;4.80;;;4.40;;
20462;SDS011;10390;53.566;9.980;2024-01-07T01:33:26;5.47;;;4.97;;
20462;SDS011;10390;53.566;9.980;2024-01-07T01:35:51;4.80;;;4.40;;
20462;SDS011;10390;53.566;9.980;2024-01-07T01:38:17;4.68;;;4.28;;
20462;SDS011;10390;53.566;9.980;2024-01-07T01:40:42;5.63;;;4.57;;
20462;SDS011;10390;53.566;9.980;2024-01-07T01:43:08;5.40;;;4.50;;
20462;SDS011;10390;53.566;9.980;2024-01-07T01:45:34;5.05;;;4.60;;
20462;SDS011;10390;53.566;9.980;2024-01-07T01:47:59;5.72;;;4.90;;
20462;SDS011;10390;53.566;9.980;2024-01-07T01:50:25;5.78;;;4.70;;
20462;SDS011;10390;53.566;9.980;2024-01-07T01:52:51;5.35;;;4.60;;
20462;SDS011;10390;53.566;9.980;2024-01-07T01:55:18;6.05;;;5.18;;
20462;SDS011;10390;53.566;9.980;2024-01-07T01:57:44;5.05;;;4.55;;
20462;SDS011;10390;53.566;9.980;2024-01-07T02:00:12;6.80;;;4.60;;
20462;SDS011;10390;53.566;9.980;2024-01-07T02:02:38;5.15;;;4.47;;
20462;SDS011;10390;53.566;9.980;2024-01-07T02:05:04;4.85;;;3.90;;
20462;SDS011;10390;53.566;9.980;2024-01-07T02:07:30;6.57;;;4.60;;
20462;SDS011;10390;53.566;9.980;2024-01-07T02:09:56;5.20;;;4.70;;
20462;SDS011;10390;53.566;9.980;2024-01-07T02:12:22;4.82;;;4.38;;
20462;SDS011;10390;53.566;9.980;2024-01-07T02:14:47;5.65;;;4.70;;
20462;SDS011;10390;53.566;9.980;2024-01-07T02:17:13;5.18;;;4.65;;
20462;SDS011;10390;53.566;9.980;2024-01-07T02:19:40;5.10;;;4.60;;
20462;SDS011;10390;53.566;9.980;2024-01-07T02:22:05;5.13;;;4.40;;
20462;SDS011;10390;53.566;9.980;2024-01-07T02:24:31;4.97;;;4.30;;
20462;SDS011;10390;53.566;9.980;2024-01-07T02:26:57;4.60;;;4.20;;
20462;SDS011;10390;53.566;9.980;2024-01-07T02:29:27;4.68;;;4.28;;
20462;SDS011;10390;53.566;9.980;2024-01-07T02:31:53;4.70;;;4.20;;
20462;SDS011;10390;53.566;9.980;2024-01-07T02:34:18;5.40;;;4.90;;
20462;SDS011;10390;53.566;9.980;2024-01-07T02:36:44;5.32;;;4.82;;
20462;SDS011;10390;53.566;9.980;2024-01-07T02:39:09;5.60;;;5.10;;
20462;SDS011;10390;53.566;9.980;2024-01-07T02:41:35;5.68;;;4.82;;
20462;SDS011;10390;53.566;9.980;2024-01-07T02:44:01;5.35;;;4.78;;
20462;SDS011;10390;53.566;9.980;2024-01-07T02:46:26;4.57;;;4.18;;
20462;SDS011;10390;53.566;9.980;2024-01-07T02:48:52;4.93;;;4.30;;
20462;SDS011;10390;53.566;9.980;2024-01-07T02:51:17;5.22;;;4.72;;
20462;SDS011;10390;53.566;9.980;2024-01-07T02:53:44;4.78;;;4.30;;
20462;SDS011;10390;53.566;9.980;2024-01-07T02:56:09;5.47;;;4.97;;
20462;SDS011;10390;53.566;9.980;2024-01-07T02:58:35;4.97;;;4.57;;
20462;SDS011;10390;53.566;9.980;2024-01-07T03:01:01;5.18;;;4.43;;
20462;SDS011;10390;53.566;9.980;2024-01-07T03:03:26;5.10;;;4.60;;
20462;SDS011;10390;53.566;9.980;2024-01-07T03:05:52;5.25;;;4.47;;
20462;SDS011;10390;53.566;9.980;2024-01-07T03:08:17;5.32;;;4.70;;
20462;SDS011;10390;53.566;9.980;2024-01-07T03:10:43;5.10;;;4.60;;
20462;SDS011;10390;53.566;9.980;2024-01-07T03:13:09;5.13;;;4.63;;
20462;SDS011;10390;53.566;9.980;2024-01-07T03:15:36;4.53;;;4.13;;
20462;SDS011;10390;53.566;9.980;2024-01-07T03:18:01;5.18;;;4.55;;
20462;SDS011;10390;53.566;9.980;2024-01-07T03:20:27;5.00;;;4.50;;
20462;SDS011;10390;53.566;9.980;2024-01-07T03:22:52;5.60;;;4.60;;
20462;SDS011;10390;53.566;9.980;2024-01-07T03:25:20;5.18;;;4.70;;
20462;SDS011;10390;53.566;9.980;2024-01-07T03:27:45;4.70;;;4.30;;
20462;SDS011;10390;53.566;9.980;2024-01-07T03:30:11;4.68;;;4.28;;
20462;SDS011;10390;53.566;9.980;2024-01-07T03:32:37;4.82;;;4.38;;
20462;SDS011;10390;53.566;9.980;2024-01-07T03:35:02;4.80;;;4.40;;
20462;SDS011;10390;53.566;9.980;2024-01-07T03:37:28;4.75;;;4.35;;
20462;SDS011;10390;53.566;9.980;2024-01-07T03:39:54;4.70;;;4.30;;
20462;SDS011;10390;53.566;9.980;2024-01-07T03:42:19;4.40;;;4.00;;
20462;SDS011;10390;53.566;9.980;2024-01-07T03:44:45;4.90;;;4.50;;
20462;SDS011;10390;53.566;9.980;2024-01-07T03:47:11;5.13;;;4.63;;
20462;SDS011;10390;53.566;9.980;2024-01-07T03:49:37;4.88;;;4.38;;
20462;SDS011;10390;53.566;9.980;2024-01-07T03:52:03;4.97;;;4.45;;
20462;SDS011;10390;53.566;9.980;2024-01-07T03:54:30;4.90;;;4.40;;
20462;SDS011;10390;53.566;9.980;2024-01-07T03:56:55;5.30;;;4.80;;
20462;SDS011;10390;53.566;9.980;2024-01-07T03:59:21;4.60;;;4.20;;
20462;SDS011;10390;53.566;9.980;2024-01-07T04:01:48;4.30;;;3.90;;
20462;SDS011;10390;53.566;9.980;2024-01-07T04:04:13;4.35;;;3.95;;
20462;SDS011;10390;53.566;9.980;2024-01-07T04:06:39;4.60;;;4.20;;
20462;SDS011;10390;53.566;9.980;2024-01-07T04:09:05;4.60;;;4.20;;
20462;SDS011;10390;53.566;9.980;2024-01-07T04:11:30;4.90;;;4.50;;
20462;SDS011;10390;53.566;9.980;2024-01-07T04:13:56;5.28;;;4.57;;
20462;SDS011;10390;53.566;9.980;2024-01-07T04:16:21;4.72;;;4.32;;
20462;SDS011;10390;53.566;9.980;2024-01-07T04:18:47;4.72;;;4.32;;
20462;SDS011;10390;53.566;9.980;2024-01-07T04:21:12;5.55;;;4.30;;
20462;SDS011;10390;53.566;9.980;2024-01-07T04:23:39;4.80;;;4.40;;
20462;SDS011;10390;53.566;9.980;2024-01-07T04:26:06;4.70;;;4.30;;
20462;SDS011;10390;53.566;9.980;2024-01-07T04:28:34;4.72;;;4.32;;
20462;SDS011;10390;53.566;9.980;2024-01-07T04:31:00;5.10;;;4.70;;
20462;SDS011;10390;53.566;9.980;2024-01-07T04:33:26;4.75;;;4.25;;
20462;SDS011;10390;53.566;9.980;2024-01-07T04:35:52;4.65;;;4.22;;
20462;SDS011;10390;53.566;9.980;2024-01-07T04:38:17;4.38;;;3.97;;
20462;SDS011;10390;53.566;9.980;2024-01-07T04:40:43;5.13;;;4.50;;
20462;SDS011;10390;53.566;9.980;2024-01-07T04:43:08;5.53;;;4.75;;
20462;SDS011;10390;53.566;9.980;2024-01-07T04:45:34;5.18;;;4.68;;
20462;SDS011;10390;53.566;9.980;2024-01-07T04:48:00;5.05;;;4.55;;
20462;SDS011;10390;53.566;9.980;2024-01-07T04:50:25;4.57;;;4.07;;
20462;SDS011;10390;53.566;9.980;2024-01-07T04:52:51;4.72;;;4.22;;
20462;SDS011;10390;53.566;9.980;2024-01-07T04:55:16;4.78;;;4.38;;
20462;SDS011;10390;53.566;9.980;2024-01-07T04:57:42;5.82;;;4.03;;
20462;SDS011;10390;53.566;9.980;2024-01-07T05:00:08;4.50;;;4.10;;
20462;SDS011;10390;53.566;9.980;2024-01-07T05:02:34;4.70;;;4.30;;
20462;SDS011;10390;53.566;9.980;2024-01-07T05:04:59;4.70;;;4.20;;
20462;SDS011;10390;53.566;9.980;2024-01-07T05:07:25;4.80;;;4.40;;
20462;SDS011;10390;53.566;9.980;2024-01-07T05:09:50;5.30;;;4.80;;
20462;SDS011;10390;53.566;9.980;2024-01-07T05:12:16;5.55;;;4.30;;
20462;SDS011;10390;53.566;9.980;2024-01-07T05:14:41;5.20;;;4.28;;
20462;SDS011;10390;53.566;9.980;2024-01-07T05:17:08;4.68;;;4.28;;
20462;SDS011;10390;53.566;9.980;2024-01-07T05:19:33;5.10;;;4.60;;
20462;SDS011;10390;53.566;9.980;2024-01-07T05:21:59;5.20;;;4.70;;
20462;SDS011;10390;53.566;9.980;2024-01-07T05:24:24;4.68;;;4.28;;
20462;SDS011;10390;53.566;9.980;2024-01-07T05:26:50;4.90;;;4.50;;
20462;SDS011;10390;53.566;9.980;2024-01-07T05:29:16;4.80;;;4.30;;
20462;SDS011;10390;53.566;9.980;2024-01-07T05:31:41;5.53;;;4.43;;
20462;SDS011;10390;53.566;9.980;2024-01-07T05:34:07;4.80;;;4.40;;
20462;SDS011;10390;53.566;9.980;2024-01-07T05:36:33;4.88;;;4.38;;
20462;SDS011;10390;53.566;9.980;2024-01-07T05:38:58;4.80;;;4.40;;
20462;SDS011;10390;53.566;9.980;2024-01-07T05:41:24;5.05;;;4.63;;
20462;SDS011;10390;53.566;9.980;2024-01-07T05:43:50;4.50;;;4.10;;
20462;SDS011;10390;53.566;9.980;2024-01-07T05:46:16;4.70;;;4.30;;
20462;SDS011;10390;53.566;9.980;2024-01-07T05:48:42;4.50;;;4.10;;
20462;SDS011;10390;53.566;9.980;2024-01-07T05:51:12;4.60;;;4.20;;
20462;SDS011;10390;53.566;9.980;2024-01-07T05:53:38;4.70;;;4.10;;
20462;SDS011;10390;53.566;9.980;2024-01-07T05:56:04;4.80;;;4.40;;
20462;SDS011;10390;53.566;9.980;2024-01-07T05:58:30;4.25;;;3.85;;
20462;SDS011;10390;53.566;9.980;2024-01-07T06:00:56;4.60;;;4.20;;
20462;SDS011;10390;53.566;9.980;2024-01-07T06:03:21;4.90;;;4.47;;
20462;SDS011;10390;53.566;9.980;2024-01-07T06:05:47;4.82;;;4.40;;
20462;SDS011;10390;53.566;9.980;2024-01-07T06:08:13;4.88;;;4.35;;
20462;SDS011;10390;53.566;9.980;2024-01-07T06:10:39;7.70;;;4.30;;
20462;SDS011;10390;53.566;9.980;2024-01-07T06:13:05;4.55;;;4.10;;
20462;SDS011;10390;53.566;9.980;2024-01-07T06:15:30;6.25;;;4.32;;
20462;SDS011;10390;53.566;9.980;2024-01-07T06:17:56;4.72;;;4.22;;
20462;SDS011;10390;53.566;9.980;2024-01-07T06:20:22;5.10;;;4.60;;
20462;SDS011;10390;53.566;9.980;2024-01-07T06:22:48;5.30;;;4.40;;
20462;SDS011;10390;53.566;9.980;2024-01-07T06:25:15;4.32;;;3.92;;
20462;SDS011;10390;53.566;9.980;2024-01-07T06:27:42;5.15;;;4.63;;
20462;SDS011;10390;53.566;9.980;2024-01-07T06:30:08;4.32;;;3.90;;
20462;SDS011;10390;53.566;9.980;2024-01-07T06:32:34;4.50;;;4.10;;
20462;SDS011;10390;53.566;9.980;2024-01-07T06:35:00;4.63;;;4.22;;
20462;SDS011;10390;53.566;9.980;2024-01-07T06:37:28;4.45;;;4.05;;
20462;SDS011;10390;53.566;9.980;2024-01-07T06:39:55;7.15;;;4.47;;
20462;SDS011;10390;53.566;9.980;2024-01-07T06:42:21;4.30;;;3.90;;
20462;SDS011;10390;53.566;9.980;2024-01-07T06:44:47;4.20;;;3.80;;
20462;SDS011;10390;53.566;9.980;2024-01-07T06:47:12;4.55;;;4.10;;
20462;SDS011;10390;53.566;9.980;2024-01-07T06:49:38;4.93;;;4.53;;
20462;SDS011;10390;53.566;9.980;2024-01-07T06:52:04;4.68;;;4.28;;
20462;SDS011;10390;53.566;9.980;2024-01-07T06:54:30;4.30;;;3.90;;
20462;SDS011;10390;53.566;9.980;2024-01-07T06:56:56;4.50;;;4.10;;
20462;SDS011;10390;53.566;9.980;2024-01-07T06:59:21;5.05;;;4.40;;
20462;SDS011;10390;53.566;9.980;2024-01-07T07:01:47;4.90;;;4.50;;
20462;SDS011;10390;53.566;9.980;2024-01-07T07:04:12;5.78;;;4.82;;
20462;SDS011;10390;53.566;9.980;2024-01-07T07:06:38;5.30;;;4.80;;
20462;SDS011;10390;53.566;9.980;2024-01-07T07:09:04;5.07;;;4.68;;
20462;SDS011;10390;53.566;9.980;2024-01-07T07:11:29;5.00;;;4.50;;
20462;SDS011;10390;53.566;9.980;2024-01-07T07:13:55;5.43;;;4.93;;
20462;SDS011;10390;53.566;9.980;2024-01-07T07:16:21;4.93;;;4.53;;
20462;SDS011;10390;53.566;9.980;2024-01-07T07:18:48;4.82;;;4.43;;
20462;SDS011;10390;53.566;9.980;2024-01-07T07:21:13;5.18;;;4.68;;
20462;SDS011;10390;53.566;9.980;2024-01-07T07:23:39;4.88;;;4.47;;
20462;SDS011;10390;53.566;9.980;2024-01-07T07:26:04;5.20;;;4.72;;
20462;SDS011;10390;53.566;9.980;2024-01-07T07:28:30;6.50;;;4.90;;
20462;SDS011;10390;53.566;9.980;2024-01-07T07:30:56;5.10;;;4.50;;
20462;SDS011;10390;53.566;9.980;2024-01-07T07:33:21;5.05;;;4.65;;
20462;SDS011;10390;53.566;9.980;2024-01-07T07:35:47;4.85;;;4.45;;
20462;SDS011;10390;53.566;9.980;2024-01-07T07:38:12;4.57;;;4.18;;
20462;SDS011;10390;53.566;9.980;2024-01-07T07:40:39;4.28;;;3.88;;
20462;SDS011;10390;53.566;9.980;2024-01-07T07:43:05;4.90;;;4.40;;
20462;SDS011;10390;53.566;9.980;2024-01-07T07:45:30;4.35;;;3.95;;
20462;SDS011;10390;53.566;9.980;2024-01-07T07:47:56;5.07;;;4.60;;
20462;SDS011;10390;53.566;9.980;2024-01-07T07:50:21;5.50;;;5.00;;
20462;SDS011;10390;53.566;9.980;2024-01-07T07:52:47;4.78;;;4.38;;
20462;SDS011;10390;53.566;9.980;2024-01-07T07:55:13;5.03;;;4.53;;
20462;SDS011;10390;53.566;9.980;2024-01-07T07:57:38;5.15;;;4.65;;
20462;SDS011;10390;53.566;9.980;2024-01-07T08:00:05;4.80;;;4.40;;
20462;SDS011;10390;53.566;9.980;2024-01-07T08:02:31;5.03;;;4.63;;
20462;SDS011;10390;53.566;9.980;2024-01-07T08:04:57;5.30;;;4.80;;
20462;SDS011;10390;53.566;9.980;2024-01-07T08:07:23;5.32;;;4.82;;
20462;SDS011;10390;53.566;9.980;2024-01-07T08:09:48;5.13;;;4.60;;
20462;SDS011;10390;53.566;9.980;2024-01-07T08:12:14;4.60;;;4.20;;
20462;SDS011;10390;53.566;9.980;2024-01-07T08:14:39;4.90;;;4.40;;
20462;SDS011;10390;53.566;9.980;2024-01-07T08:17:06;5.10;;;4.70;;
20462;SDS011;10390;53.566;9.980;2024-01-07T08:19:32;5.55;;;4.60;;
20462;SDS011;10390;53.566;9.980;2024-01-07T08:21:58;5.05;;;4.55;;
20462;SDS011;10390;53.566;9.980;2024-01-07T08:24:24;4.97;;;4.57;;
20462;SDS011;10390;53.566;9.980;2024-01-07T08:26:49;5.97;;;4.95;;
20462;SDS011;10390;53.566;9.980;2024-01-07T08:29:15;10.13;;;5.78;;
20462;SDS011;10390;53.566;9.980;2024-01-07T08:31:41;6.15;;;5.45;;
20462;SDS011;10390;53.566;9.980;2024-01-07T08:34:07;7.97;;;5.00;;
20462;SDS011;10390;53.566;9.980;2024-01-07T08:36:33;7.07;;;4.97;;
20462;SDS011;10390;53.566;9.980;2024-01-07T08:38:58;6.88;;;4.90;;
20462;SDS011;10390;53.566;9.980;2024-01-07T08:41:25;7.70;;;5.20;;
20462;SDS011;10390;53.566;9.980;2024-01-07T08:43:50;8.10;;;4.28;;
20462;SDS011;10390;53.566;9.980;2024-01-07T08:46:16;6.25;;;4.70;;
20462;SDS011;10390;53.566;9.980;2024-01-07T08:48:42;11.48;;;5.20;;
20462;SDS011;10390;53.566;9.980;2024-01-07T08:51:08;8.50;;;5.00;;
20462;SDS011;10390;53.566;9.980;2024-01-07T08:53:33;10.88;;;5.00;;
20462;SDS011;10390;53.566;9.980;2024-01-07T08:55:59;7.43;;;4.80;;
20462;SDS011;10390;53.566;9.980;2024-01-07T08:58:24;13.10;;;5.22;;
20462;SDS011;10390;53.566;9.980;2024-01-07T09:00:50;14.18;;;5.47;;
20462;SDS011;10390;53.566;9.980;2024-01-07T09:03:16;14.77;;;5.00;;
20462;SDS011;10390;53.566;9.980;2024-01-07T09:05:43;16.85;;;5.05;;
20462;SDS011;10390;53.566;9.980;2024-01-07T09:08:08;8.73;;;4.57;;
20462;SDS011;10390;53.566;9.980;2024-01-07T09:10:36;7.82;;;4.43;;
20462;SDS011;10390;53.566;9.980;2024-01-07T09:13:02;6.97;;;4.38;;
20462;SDS011;10390;53.566;9.980;2024-01-07T09:15:28;9.20;;;4.95;;
20462;SDS011;10390;53.566;9.980;2024-01-07T09:17:54;7.72;;;4.70;;
20462;SDS011;10390;53.566;9.980;2024-01-07T09:20:19;6.93;;;4.07;;
20462;SDS011;10390;53.566;9.980;2024-01-07T09:22:45;6.78;;;4.40;;
20462;SDS011;10390;53.566;9.980;2024-01-07T09:25:11;8.70;;;4.28;;
20462;SDS011;10390;53.566;9.980;2024-01-07T09:27:36;7.10;;;4.28;;
20462;SDS011;10390;53.566;9.980;2024-01-07T09:30:02;5.55;;;4.30;;
20462;SDS011;10390;53.566;9.980;2024-01-07T09:32:28;6.18;;;4.07;;
20462;SDS011;10390;53.566;9.980;2024-01-07T09:34:53;7.43;;;4.15;;
20462;SDS011;10390;53.566;9.980;2024-01-07T09:37:19;10.73;;;4.88;;
20462;SDS011;10390;53.566;9.980;2024-01-07T09:39:44;4.97;;;4.47;;
20462;SDS011;10390;53.566;9.980;2024-01-07T09:42:14;6.00;;;4.20;;
20462;SDS011;10390;53.566;9.980;2024-01-07T09:44:41;5.82;;;4.78;;
20462;SDS011;10390;53.566;9.980;2024-01-07T09:47:11;8.27;;;4.55;;
20462;SDS011;10390;53.566;9.980;2024-01-07T09:49:41;5.43;;;4.93;;
20462;SDS011;10390;53.566;9.980;2024-01-07T09:52:08;7.40;;;5.35;;
20462;SDS011;10390;53.566;9.980;2024-01-07T09:54:38;7.53;;;5.00;;
20462;SDS011;10390;53.566;9.980;2024-01-07T09:57:05;5.20;;;4.10;;
20462;SDS011;10390;53.566;9.980;2024-01-07T09:59:32;5.20;;;4.70;;
20462;SDS011;10390;53.566;9.980;2024-01-07T10:01:59;5.63;;;4.88;;
20462;SDS011;10390;53.566;9.980;2024-01-07T10:04:25;11.52;;;5.60;;
20462;SDS011;10390;53.566;9.980;2024-01-07T10:06:52;9.02;;;4.95;;
20462;SDS011;10390;53.566;9.980;2024-01-07T10:09:19;7.45;;;5.10;;
20462;SDS011;10390;53.566;9.980;2024-01-07T10:11:49;13.07;;;4.90;;
20462;SDS011;10390;53.566;9.980;2024-01-07T10:14:15;9.90;;;4.80;;
20462;SDS011;10390;53.566;9.980;2024-01-07T10:16:40;9.45;;;4.80;;
20462;SDS011;10390;53.566;9.980;2024-01-07T10:19:06;9.98;;;4.63;;
20462;SDS011;10390;53.566;9.980;2024-01-07T10:21:32;9.20;;;4.55;;
20462;SDS011;10390;53.566;9.980;2024-01-07T10:24:08;10.38;;;4.72;;
20462;SDS011;10390;53.566;9.980;2024-01-07T10:26:40;10.18;;;5.22;;
20462;SDS011;10390;53.566;9.980;2024-01-07T10:29:06;14.15;;;4.82;;
20462;SDS011;10390;53.566;9.980;2024-01-07T10:31:33;8.82;;;4.93;;
20462;SDS011;10390;53.566;9.980;2024-01-07T10:33:59;12.07;;;5.18;;
20462;SDS011;10390;53.566;9.980;2024-01-07T10:36:25;10.07;;;5.75;;
20462;SDS011;10390;53.566;9.980;2024-01-07T10:38:51;13.57;;;5.53;;
20462;SDS011;10390;53.566;9.980;2024-01-07T10:41:18;13.38;;;5.18;;
20462;SDS011;10390;53.566;9.980;2024-01-07T10:43:47;8.30;;;5.20;;
20462;SDS011;10390;53.566;9.980;2024-01-07T10:46:13;16.25;;;5.45;;
20462;SDS011;10390;53.566;9.980;2024-01-07T10:48:42;9.55;;;4.80;;
20462;SDS011;10390;53.566;9.980;2024-01-07T10:51:20;12.48;;;5.20;;
20462;SDS011;10390;53.566;9.980;2024-01-07T10:53:46;16.92;;;5.40;;
20462;SDS011;10390;53.566;9.980;2024-01-07T10:56:18;7.97;;;5.20;;
20462;SDS011;10390;53.566;9.980;2024-01-07T10:58:53;9.45;;;5.00;;
20462;SDS011;10390;53.566;9.980;2024-01-07T11:01:19;7.43;;;4.78;;
20462;SDS011;10390;53.566;9.980;2024-01-07T11:12:04;12.52;;;5.50;;
20462;SDS011;10390;53.566;9.980;2024-01-07T11:16:59;12.82;;;5.45;;
20462;SDS011;10390;53.566;9.980;2024-01-07T11:19:25;17.23;;;5.90;;
20462;SDS011;10390;53.566;9.980;2024-01-07T11:21:51;16.88;;;5.68;;
20462;SDS011;10390;53.566;9.980;2024-01-07T11:25:00;11.65;;;5.18;;
20462;SDS011;10390;53.566;9.980;2024-01-07T11:27:10;10.05;;;5.07;;
20462;SDS011;10390;53.566;9.980;2024-01-07T11:29:36;12.63;;;4.63;;
20462;SDS011;10390;53.566;9.980;2024-01-07T11:32:02;11.52;;;4.90;;
20462;SDS011;10390;53.566;9.980;2024-01-07T11:34:40;13.48;;;5.47;;
20462;SDS011;10390;53.566;9.980;2024-01-07T11:37:12;12.02;;;5.50;;
20462;SDS011;10390;53.566;9.980;2024-01-07T11:39:41;12.27;;;5.70;;
20462;SDS011;10390;53.566;9.980;2024-01-07T11:42:11;21.38;;;5.85;;
20462;SDS011;10390;53.566;9.980;2024-01-07T11:44:37;14.60;;;6.15;;
20462;SDS011;10390;53.566;9.980;2024-01-07T11:47:10;10.50;;;5.57;;
20462;SDS011;10390;53.566;9.980;2024-01-07T11:49:35;21.15;;;6.32;;
20462;SDS011;10390;53.566;9.980;2024-01-07T11:52:01;12.05;;;5.20;;
20462;SDS011;10390;53.566;9.980;2024-01-07T11:54:29;11.65;;;5.15;;
20462;SDS011;10390;53.566;9.980;2024-01-07T11:56:54;11.02;;;5.13;;
20462;SDS011;10390;53.566;9.980;2024-01-07T11:59:21;15.70;;;5.50;;
20462;SDS011;10390;53.566;9.980;2024-01-07T12:01:47;8.65;;;5.47;;
20462;SDS011;10390;53.566;9.980;2024-01-07T12:04:12;13.20;;;5.72;;
20462;SDS011;10390;53.566;9.980;2024-01-07T12:06:38;10.20;;;4.72;;
20462;SDS011;10390;53.566;9.980;2024-01-07T12:09:04;18.02;;;5.60;;
20462;SDS011;10390;53.566;9.980;2024-01-07T12:11:30;9.43;;;5.25;;
20462;SDS011;10390;53.566;9.980;2024-01-07T12:13:56;9.45;;;4.13;;
20462;SDS011;10390;53.566;9.980;2024-01-07T12:16:22;7.60;;;4.63;;
20462;SDS011;10390;53.566;9.980;2024-01-07T12:18:48;10.57;;;4.97;;
20462;SDS011;10390;53.566;9.980;2024-01-07T12:21:20;7.70;;;5.47;;
20462;SDS011;10390;53.566;9.980;2024-01-07T12:23:50;8.20;;;5.13;;
20462;SDS011;10390;53.566;9.980;2024-01-07T12:26:16;10.38;;;5.47;;
20462;SDS011;10390;53.566;9.980;2024-01-07T12:28:42;11.95;;;5.53;;
20462;SDS011;10390;53.566;9.980;2024-01-07T12:31:09;12.90;;;5.85;;
20462;SDS011;10390;53.566;9.980;2024-01-07T12:33:36;10.27;;;4.93;;
20462;SDS011;10390;53.566;9.980;2024-01-07T12:36:03;17.98;;;5.30;;
20462;SDS011;10390;53.566;9.980;2024-01-07T12:38:29;12.82;;;5.88;;
20462;SDS011;10390;53.566;9.980;2024-01-07T12:40:55;17.23;;;5.70;;
20462;SDS011;10390;53.566;9.980;2024-01-07T12:43:21;11.77;;;5.50;;
20462;SDS011;10390;53.566;9.980;2024-01-07T12:45:48;11.05;;;5.90;;
20462;SDS011;10390;53.566;9.980;2024-01-07T12:48:14;14.95;;;5.60;;
20462;SDS011;10390;53.566;9.980;2024-01-07T12:50:40;11.23;;;5.88;;
20462;SDS011;10390;53.566;9.980;2024-01-07T12:53:05;9.48;;;6.13;;
20462;SDS011;10390;53.566;9.980;2024-01-07T12:55:31;14.93;;;6.43;;
20462;SDS011;10390;53.566;9.980;2024-01-07T12:57:57;15.98;;;6.40;;
20462;SDS011;10390;53.566;9.980;2024-01-07T13:00:27;14.50;;;6.32;;
20462;SDS011;10390;53.566;9.980;2024-01-07T13:02:53;9.85;;;5.38;;
20462;SDS011;10390;53.566;9.980;2024-01-07T13:05:20;10.85;;;5.13;;
20462;SDS011;10390;53.566;9.980;2024-01-07T13:07:46;9.50;;;5.82;;
20462;SDS011;10390;53.566;9.980;2024-01-07T13:10:12;10.95;;;5.07;;
20462;SDS011;10390;53.566;9.980;2024-01-07T13:12:38;11.02;;;6.10;;
20462;SDS011;10390;53.566;9.980;2024-01-07T13:15:04;11.30;;;4.93;;
20462;SDS011;10390;53.566;9.980;2024-01-07T13:17:29;13.13;;;5.20;;
20462;SDS011;10390;53.566;9.980;2024-01-07T13:19:57;13.77;;;4.88;;
20462;SDS011;10390;53.566;9.980;2024-01-07T13:22:23;18.80;;;5.82;;
20462;SDS011;10390;53.566;9.980;2024-01-07T13:24:49;8.88;;;5.65;;
20462;SDS011;10390;53.566;9.980;2024-01-07T13:27:15;8.93;;;4.45;;
20462;SDS011;10390;53.566;9.980;2024-01-07T13:29:43;10.60;;;5.05;;
20462;SDS011;10390;53.566;9.980;2024-01-07T13:32:10;9.65;;;5.03;;
20462;SDS011;10390;53.566;9.980;2024-01-07T13:34:36;11.23;;;5.20;;
20462;SDS011;10390;53.566;9.980;2024-01-07T13:37:01;6.63;;;4.63;;
20462;SDS011;10390;53.566;9.980;2024-01-07T13:39:28;9.90;;;5.55;;
20462;SDS011;10390;53.566;9.980;2024-01-07T13:41:55;6.53;;;4.78;;
20462;SDS011;10390;53.566;9.980;2024-01-07T13:44:21;7.35;;;4.75;;
20462;SDS011;10390;53.566;9.980;2024-01-07T13:46:46;6.85;;;4.13;;
20462;SDS011;10390;53.566;9.980;2024-01-07T13:49:13;7.10;;;4.40;;
20462;SDS011;10390;53.566;9.980;2024-01-07T13:51:39;6.35;;;4.28;;
20462;SDS011;10390;53.566;9.980;2024-01-07T13:54:05;12.50;;;4.60;;
20462;SDS011;10390;53.566;9.980;2024-01-07T13:56:32;9.80;;;4.50;;
20462;SDS011;10390;53.566;9.980;2024-01-07T13:59:01;11.73;;;4.75;;
20462;SDS011;10390;53.566;9.980;2024-01-07T14:01:28;6.70;;;4.47;;
20462;SDS011;10390;53.566;9.980;2024-01-07T14:03:54;9.25;;;5.00;;
20462;SDS011;10390;53.566;9.980;2024-01-07T14:06:20;5.72;;;3.83;;
20462;SDS011;10390;53.566;9.980;2024-01-07T14:08:46;8.23;;;4.75;;
20462;SDS011;10390;53.566;9.980;2024-01-07T14:11:12;12.98;;;5.28;;
20462;SDS011;10390;53.566;9.980;2024-01-07T14:13:37;7.90;;;4.57;;
20462;SDS011;10390;53.566;9.980;2024-01-07T14:16:03;8.55;;;4.68;;
20462;SDS011;10390;53.566;9.980;2024-01-07T14:18:29;8.95;;;4.50;;
20462;SDS011;10390;53.566;9.980;2024-01-07T14:20:55;5.85;;;4.60;;
20462;SDS011;10390;53.566;9.980;2024-01-07T14:23:21;8.50;;;4.50;;
20462;SDS011;10390;53.566;9.980;2024-01-07T14:25:46;6.68;;;4.50;;
20462;SDS011;10390;53.566;9.980;2024-01-07T14:28:12;7.07;;;4.35;;
20462;SDS011;10390;53.566;9.980;2024-01-07T14:30:38;5.63;;;4.18;;
20462;SDS011;10390;53.566;9.980;2024-01-07T14:33:03;7.22;;;4.03;;
20462;SDS011;10390;53.566;9.980;2024-01-07T14:35:29;6.50;;;3.75;;
20462;SDS011;10390;53.566;9.980;2024-01-07T14:37:55;5.28;;;4.25;;
20462;SDS011;10390;53.566;9.980;2024-01-07T14:40:24;5.15;;;3.83;;
20462;SDS011;10390;53.566;9.980;2024-01-07T14:42:50;7.60;;;4.05;;
20462;SDS011;10390;53.566;9.980;2024-01-07T14:45:19;6.18;;;4.20;;
20462;SDS011;10390;53.566;9.980;2024-01-07T14:47:45;6.53;;;4.30;;
20462;SDS011;10390;53.566;9.980;2024-01-07T14:50:11;5.90;;;4.40;;